Main page
METAR-TAF:

METAR-TAF

Airports :

Rota, Spain

Naval Station Rota

latitude: 36-39N, longitude: 006-21W, elevation: 26 m

Current weather observation

The report was made 38 minutes ago, at 16:00 UTC
Wind 14 kt from the West, varying between West/Southwest and Northwest
Temperature 25°C
Humidity 61%
Pressure 1014 hPa
Visibility 10 km or more
no clouds below 1500 m and no cumulonimbus

METAR: LERT 221600Z 27014KT 250V310 CAVOK 25/17 Q1014 NOSIG

Time: 18:38 (16:38 UTC)

Forecast

The report was made 2 hours and 38 minutes ago, at 14:00 UTC
Forecast valid from 22 at 15 UTC to 22 at 24 UTC
Wind 9 kt from the West/Northwest
Visibility 10 km or more
no clouds below 1500 m and no cumulonimbus

TAF: LERT 221400Z 2215/2224 29009KT CAVOK

Weather observations and forecasts of more than 4000 airports (METAR and TAF reports).

The available stations are represented by yellow and red dots on the map.

Hover mouse over dot to see the name of the station.

Then click to see weather observations and forecasts.

To change the map : click on the green buttons with a black cross to zoom in, on the green button with a dash to zoom out, or on the green arrows for adjacent maps.


METAR-TAF: